Time;durP1;ratioP1;P1;durP2;ratioP2;P2;SDS_P1;SDS_P2;PMS_P1;PMS_P2;Temp;Humidity;BMP_temperature;BMP_pressure;BME280_temperature;BME280_humidity;BME280_pressure;Samples;Min_cycle;Max_cycle;Signal;HPM_P1;HPM_P2
2021/01/14 00:00:50;;;;;;;2.83;1.63;;;;;;;-1.39;100.00;99365.81;5036096;28;20071;-76
2021/01/14 00:03:16;;;;;;;3.97;1.93;;;;;;;-1.40;100.00;99366.69;5057865;28;20044;-76
2021/01/14 00:05:42;;;;;;;3.47;2.07;;;;;;;-1.36;100.00;99372.72;5038817;28;20485;-76
2021/01/14 00:08:10;;;;;;;2.90;1.93;;;;;;;-1.36;100.00;99373.59;5035230;28;20567;-76
2021/01/14 00:10:37;;;;;;;2.23;1.57;;;;;;;-1.36;100.00;99376.19;5024125;28;20048;-76
2021/01/14 00:13:08;;;;;;;2.53;1.40;;;;;;;-1.35;100.00;99372.75;5051269;28;20040;-76
2021/01/14 00:15:34;;;;;;;1.90;1.20;;;;;;;-1.36;100.00;99386.56;5035409;28;20040;-76
2021/01/14 00:18:01;;;;;;;1.60;1.20;;;;;;;-1.34;100.00;99386.59;5034551;28;20036;-76
2021/01/14 00:20:27;;;;;;;2.47;1.50;;;;;;;-1.33;100.00;99399.53;5027820;28;20041;-76
2021/01/14 00:22:53;;;;;;;2.53;1.57;;;;;;;-1.32;100.00;99413.38;5037063;28;20036;-76
2021/01/14 00:25:20;;;;;;;2.17;1.20;;;;;;;-1.33;100.00;99417.69;5042139;28;20043;-76
2021/01/14 00:27:46;;;;;;;2.10;1.13;;;;;;;-1.32;100.00;99437.53;5066034;28;20044;-76
2021/01/14 00:30:16;;;;;;;1.30;1.00;;;;;;;-1.33;100.00;99443.59;5060485;28;20445;-76
2021/01/14 00:32:43;;;;;;;1.40;1.10;;;;;;;-1.32;100.00;99454.81;5024297;28;20509;-76
2021/01/14 00:35:09;;;;;;;1.10;0.90;;;;;;;-1.32;100.00;99466.03;5028125;28;20091;-76
2021/01/14 00:37:51;;;;;;;1.83;1.17;;;;;;;-1.33;100.00;99473.81;5026992;28;20052;-75
2021/01/14 00:40:32;;;;;;;1.47;1.20;;;;;;;-1.33;100.00;99487.63;5024151;28;20033;-75
2021/01/14 00:43:00;;;;;;;1.13;0.80;;;;;;;-1.34;100.00;99496.28;5046564;28;20044;-76
2021/01/14 00:45:27;;;;;;;1.70;1.10;;;;;;;-1.32;100.00;99501.47;5035554;28;20037;-76
2021/01/14 00:47:54;;;;;;;1.57;0.80;;;;;;;-1.34;100.00;99511.81;5023313;28;20095;-76
2021/01/14 00:50:20;;;;;;;1.20;0.80;;;;;;;-1.36;100.00;99508.31;5042952;28;20393;-75
2021/01/14 00:52:46;;;;;;;2.17;1.00;;;;;;;-1.37;100.00;99516.94;5039661;28;20045;-75
2021/01/14 00:55:16;;;;;;;1.20;1.00;;;;;;;-1.37;100.00;99531.63;5045990;28;20044;-76
2021/01/14 00:57:43;;;;;;;2.43;1.00;;;;;;;-1.38;100.00;99532.47;5025863;28;20040;-76
2021/01/14 01:00:14;;;;;;;2.00;1.07;;;;;;;-1.37;100.00;99539.41;5061545;28;20033;-76
2021/01/14 01:02:52;;;;;;;3.00;1.13;;;;;;;-1.42;100.00;99548.00;5064406;28;20133;-76
2021/01/14 01:05:21;;;;;;;1.47;1.00;;;;;;;-1.42;100.00;99562.69;5033789;28;20040;-76
2021/01/14 01:07:57;;;;;;;1.73;1.00;;;;;;;-1.42;100.00;99568.72;5037763;28;20032;-76
2021/01/14 01:10:24;;;;;;;1.17;0.97;;;;;;;-1.41;100.00;99577.38;5045727;28;20032;-76
2021/01/14 01:12:54;;;;;;;1.57;1.00;;;;;;;-1.39;100.00;99591.19;5046750;28;20120;-75
2021/01/14 01:15:21;;;;;;;2.40;1.50;;;;;;;-1.42;100.00;99597.22;5047502;28;20127;-76
2021/01/14 01:17:48;;;;;;;2.07;1.30;;;;;;;-1.42;100.00;99602.41;5039183;28;20076;-76
2021/01/14 01:20:14;;;;;;;1.30;1.00;;;;;;;-1.41;100.00;99616.22;5032853;28;20037;-76
2021/01/14 01:22:44;;;;;;;2.60;1.57;;;;;;;-1.41;100.00;99626.59;5024253;28;20538;-75
2021/01/14 01:25:10;;;;;;;1.47;1.23;;;;;;;-1.44;100.00;99626.53;5058749;28;20032;-75
2021/01/14 01:27:37;;;;;;;3.17;1.70;;;;;;;-1.48;100.00;99640.31;5026770;28;20056;-75
2021/01/14 01:30:06;;;;;;;2.57;1.70;;;;;;;-1.57;100.00;99635.91;5065260;28;20037;-75
2021/01/14 01:32:32;;;;;;;2.83;1.50;;;;;;;-1.59;100.00;99657.47;5049661;28;20405;-75
2021/01/14 01:34:58;;;;;;;2.17;1.40;;;;;;;-1.63;100.00;99664.31;5040346;28;20064;-76
2021/01/14 01:37:24;;;;;;;4.70;1.77;;;;;;;-1.64;100.00;99677.25;5046693;28;20425;-75
2021/01/14 01:39:51;;;;;;;2.43;1.60;;;;;;;-1.68;100.00;99678.03;5060824;28;20056;-76
2021/01/14 01:42:17;;;;;;;3.00;1.60;;;;;;;-1.67;100.00;99688.44;5042634;28;20040;-75
2021/01/14 01:44:43;;;;;;;4.83;1.83;;;;;;;-1.62;100.00;99704.88;5033905;28;20052;-75
2021/01/14 01:47:09;;;;;;;3.67;2.60;;;;;;;-1.60;100.00;99707.50;5041109;28;20802;-74
2021/01/14 01:49:37;;;;;;;3.60;2.13;;;;;;;-1.58;100.00;99711.88;5047890;28;20029;-75
2021/01/14 01:52:04;;;;;;;3.50;2.13;;;;;;;-1.57;100.00;99711.00;5047544;28;20086;-75
2021/01/14 01:54:32;;;;;;;3.57;2.20;;;;;;;-1.55;100.00;99727.44;5031947;28;20609;-75
2021/01/14 01:57:00;;;;;;;3.67;1.80;;;;;;;-1.54;100.00;99726.56;5029132;28;20037;-75
2021/01/14 01:59:27;;;;;;;3.77;2.10;;;;;;;-1.50;100.00;99740.47;5040417;28;20539;-75
2021/01/14 02:01:53;;;;;;;3.73;2.33;;;;;;;-1.49;100.00;99745.66;5030697;28;20041;-75
2021/01/14 02:04:19;;;;;;;3.73;2.20;;;;;;;-1.47;100.00;99751.72;5047318;28;20039;-75
2021/01/14 02:06:50;;;;;;;3.83;2.00;;;;;;;-1.42;100.00;99754.38;5051439;28;20032;-75
2021/01/14 02:09:18;;;;;;;3.47;2.03;;;;;;;-1.42;100.00;99773.38;5023490;28;20044;-75
2021/01/14 02:11:46;;;;;;;3.63;1.80;;;;;;;-1.43;100.00;99778.53;5032785;28;20553;-75
2021/01/14 02:14:19;;;;;;;4.43;2.30;;;;;;;-1.42;100.00;99795.84;5033563;28;20403;-75
2021/01/14 02:16:50;;;;;;;5.13;2.20;;;;;;;-1.39;100.00;99795.88;5042540;28;20175;-75
2021/01/14 02:19:20;;;;;;;4.30;2.40;;;;;;;-1.40;100.00;99808.81;5040262;28;20049;-75
2021/01/14 02:21:47;;;;;;;3.60;1.93;;;;;;;-1.40;100.00;99814.84;5031872;28;20082;-75
2021/01/14 02:24:37;;;;;;;5.97;3.27;;;;;;;-1.33;100.00;99821.88;5049306;28;20044;-75
2021/01/14 02:27:03;;;;;;;4.23;2.30;;;;;;;-1.36;100.00;99842.53;5027733;28;20443;-75
2021/01/14 02:29:30;;;;;;;4.13;2.50;;;;;;;-1.36;100.00;99845.13;5045602;28;20055;-75
2021/01/14 02:31:56;;;;;;;5.27;2.57;;;;;;;-1.36;100.00;99852.03;5037190;28;20067;-75
2021/01/14 02:34:22;;;;;;;4.33;2.10;;;;;;;-1.35;100.00;99856.34;5047255;28;20040;-75
2021/01/14 02:36:48;;;;;;;4.90;2.63;;;;;;;-1.35;100.00;99865.00;5060768;28;20040;-75
2021/01/14 02:39:15;;;;;;;4.50;2.70;;;;;;;-1.29;100.00;99878.06;5041903;28;20048;-75
2021/01/14 02:41:41;;;;;;;5.23;2.43;;;;;;;-1.25;100.00;99881.56;5048335;28;20045;-75
2021/01/14 02:44:07;;;;;;;4.60;2.77;;;;;;;-1.24;100.00;99896.28;5038698;28;20103;-75
2021/01/14 02:46:34;;;;;;;8.07;3.00;;;;;;;-1.21;100.00;99897.19;5019737;28;20060;-75
2021/01/14 02:49:06;;;;;;;4.27;2.43;;;;;;;-1.23;100.00;99911.84;5044431;28;20037;-75
2021/01/14 02:51:42;;;;;;;6.20;3.23;;;;;;;-1.24;100.00;99910.09;5036958;28;20052;-75
2021/01/14 02:54:09;;;;;;;5.10;2.90;;;;;;;-1.23;100.00;99917.03;5037524;28;20045;-75
2021/01/14 02:56:37;;;;;;;6.10;2.90;;;;;;;-1.23;100.00;99927.38;5059109;28;20037;-75
2021/01/14 02:59:03;;;;;;;4.53;2.70;;;;;;;-1.23;100.00;99944.66;5024778;28;20032;-75
2021/01/14 03:01:30;;;;;;;3.73;2.90;;;;;;;-1.22;100.00;99943.81;5046041;28;20033;-75
2021/01/14 03:03:56;;;;;;;5.83;3.23;;;;;;;-1.23;100.00;99958.50;5027409;28;20099;-75
2021/01/14 03:06:22;;;;;;;5.50;2.87;;;;;;;-1.22;100.00;99964.53;5026721;28;20036;-75
2021/01/14 03:08:48;;;;;;;9.40;3.70;;;;;;;-1.19;100.00;99973.22;5041689;28;20058;-75
2021/01/14 03:11:16;;;;;;;8.33;4.30;;;;;;;-1.13;100.00;99980.22;5036709;28;20425;-75
2021/01/14 03:13:43;;;;;;;6.47;3.43;;;;;;;-1.14;100.00;99994.91;5043766;28;20553;-75
2021/01/14 03:16:09;;;;;;;9.27;3.50;;;;;;;-1.11;100.00;100008.75;5042277;22;20052;-72
2021/01/14 03:18:35;;;;;;;8.90;4.50;;;;;;;-1.06;100.00;100002.81;5043148;28;20055;-72
2021/01/14 03:21:01;;;;;;;7.53;4.50;;;;;;;-1.09;100.00;100012.25;5024917;28;20135;-72
2021/01/14 03:23:27;;;;;;;8.13;4.13;;;;;;;-1.08;100.00;100025.25;5042780;28;20056;-72
2021/01/14 03:25:54;;;;;;;8.53;4.17;;;;;;;-1.08;100.00;100026.97;5044545;28;20418;-72
2021/01/14 03:28:20;;;;;;;8.10;4.10;;;;;;;-1.09;100.00;100039.06;5040822;28;20106;-72
2021/01/14 03:30:46;;;;;;;6.90;4.13;;;;;;;-1.09;100.00;100036.47;5041913;28;20037;-72
2021/01/14 03:33:13;;;;;;;9.40;5.07;;;;;;;-1.07;100.00;100058.09;5043351;28;20112;-72
2021/01/14 03:35:39;;;;;;;10.13;5.70;;;;;;;-1.02;100.00;100063.34;5016908;28;20163;-72
2021/01/14 03:38:05;;;;;;;11.10;6.07;;;;;;;-1.04;100.00;100068.50;5012147;28;20579;-72
2021/01/14 03:40:31;;;;;;;10.90;5.67;;;;;;;-0.99;100.00;100078.97;5045204;28;20448;-72
2021/01/14 03:42:58;;;;;;;13.57;7.00;;;;;;;-0.98;100.00;100084.19;5026838;28;20056;-72
2021/01/14 03:45:24;;;;;;;12.67;6.50;;;;;;;-1.00;100.00;100090.19;5044694;28;20045;-73
2021/01/14 03:47:50;;;;;;;12.17;6.30;;;;;;;-1.02;100.00;100104.81;5043732;28;20149;-72
2021/01/14 03:50:16;;;;;;;11.63;5.97;;;;;;;-1.02;100.00;100110.88;5045034;28;20366;-72
2021/01/14 03:52:42;;;;;;;9.30;5.23;;;;;;;-1.04;100.00;100117.78;5013297;28;20772;-73
2021/01/14 03:55:09;;;;;;;14.13;6.17;;;;;;;-1.02;100.00;100123.84;5043747;28;20049;-73
2021/01/14 03:57:36;;;;;;;11.00;6.00;;;;;;;-1.03;100.00;100124.69;5043018;28;20045;-73
2021/01/14 04:00:05;;;;;;;11.90;6.73;;;;;;;-1.02;100.00;100151.50;5042436;28;20481;-73
2021/01/14 04:02:32;;;;;;;10.60;5.50;;;;;;;-1.01;100.00;100150.63;5026556;28;20045;-73
2021/01/14 04:04:58;;;;;;;10.40;5.40;;;;;;;-1.01;100.00;100158.41;5027369;28;20029;-73
2021/01/14 04:07:24;;;;;;;9.53;5.33;;;;;;;-1.04;100.00;100167.03;5043823;28;20098;-73
2021/01/14 04:09:51;;;;;;;13.60;5.63;;;;;;;-1.04;100.00;100177.41;5045006;28;20482;-73
2021/01/14 04:12:17;;;;;;;12.97;5.73;;;;;;;-1.00;100.00;100175.75;5025848;28;20064;-73
2021/01/14 04:14:50;;;;;;;11.27;5.60;;;;;;;-1.01;100.00;100184.34;5043558;28;20052;-73
2021/01/14 04:17:16;;;;;;;16.73;6.73;;;;;;;-0.99;100.00;100195.66;5042598;28;20036;-73
2021/01/14 04:19:42;;;;;;;10.17;5.77;;;;;;;-1.00;100.00;100202.56;5028134;28;20037;-73
2021/01/14 04:22:09;;;;;;;11.13;6.13;;;;;;;-0.98;100.00;100210.34;5012437;28;20041;-73
2021/01/14 04:24:38;;;;;;;9.73;5.77;;;;;;;-0.92;100.00;100205.28;5037411;28;20033;-73
2021/01/14 04:27:05;;;;;;;11.27;6.03;;;;;;;-0.94;100.00;100201.75;5044919;28;20048;-73
2021/01/14 04:29:31;;;;;;;11.03;6.23;;;;;;;-0.94;100.00;100207.81;5047082;28;20041;-73
2021/01/14 04:31:57;;;;;;;13.90;5.83;;;;;;;-0.96;100.00;100221.63;5029638;28;20684;-73
2021/01/14 04:34:23;;;;;;;9.20;6.40;;;;;;;-0.93;100.00;100222.53;5031177;28;20069;-73
2021/01/14 04:37:00;;;;;;;12.20;6.57;;;;;;;-0.92;100.00;100229.50;5029742;28;20037;-73
2021/01/14 04:39:26;;;;;;;13.07;6.83;;;;;;;-0.93;100.00;100248.47;5030441;28;20048;-73
2021/01/14 04:41:56;;;;;;;11.50;6.90;;;;;;;-0.85;100.00;100251.22;5048518;28;20401;-73
2021/01/14 04:44:24;;;;;;;13.07;6.43;;;;;;;-0.90;100.00;100253.72;5031360;28;20067;-73
2021/01/14 04:46:55;;;;;;;11.60;6.33;;;;;;;-0.92;100.00;100262.34;5045221;28;20029;-73
2021/01/14 04:49:21;;;;;;;10.20;5.60;;;;;;;-0.95;100.00;100270.03;5053080;28;20090;-74
2021/01/14 04:51:47;;;;;;;8.73;5.73;;;;;;;-0.97;100.00;100275.19;5031288;28;20045;-74
2021/01/14 04:54:19;;;;;;;9.00;6.17;;;;;;;-0.95;100.00;100276.09;5048252;28;20041;-74
2021/01/14 04:56:46;;;;;;;8.43;5.73;;;;;;;-0.96;100.00;100287.31;5030965;28;20048;-74
2021/01/14 04:59:17;;;;;;;12.17;6.73;;;;;;;-0.95;100.00;100290.78;5030155;28;20039;-74
2021/01/14 05:01:45;;;;;;;12.23;7.37;;;;;;;-0.96;100.00;100300.28;5045155;28;20060;-73
2021/01/14 05:04:14;;;;;;;10.03;6.50;;;;;;;-0.98;100.00;100303.69;5047734;28;20731;-73
2021/01/14 05:06:43;;;;;;;10.60;6.53;;;;;;;-1.03;100.00;100315.66;5030259;28;20570;-73
2021/01/14 05:09:14;;;;;;;11.67;6.10;;;;;;;-1.08;100.00;100325.09;5048546;28;20037;-73
2021/01/14 05:11:44;;;;;;;11.50;6.47;;;;;;;-1.14;100.00;100323.22;5047231;28;20063;-73
2021/01/14 05:14:10;;;;;;;9.77;6.60;;;;;;;-1.23;100.00;100333.41;5031882;28;20048;-73
2021/01/14 05:16:36;;;;;;;8.57;5.33;;;;;;;-1.34;100.00;100343.53;5030467;28;20045;-73
2021/01/14 05:19:03;;;;;;;10.87;6.23;;;;;;;-1.44;100.00;100350.22;5046154;28;20044;-73
2021/01/14 05:21:33;;;;;;;9.40;5.80;;;;;;;-1.53;100.00;100362.09;5030415;28;20044;-73
2021/01/14 05:24:13;;;;;;;7.80;4.83;;;;;;;-1.58;100.00;100366.31;5038760;28;20040;-72
2021/01/14 05:26:44;;;;;;;11.77;6.40;;;;;;;-1.63;100.00;100371.34;5030805;28;20049;-73
2021/01/14 05:29:17;;;;;;;8.67;4.93;;;;;;;-1.75;100.00;100373.66;5029970;28;20044;-73
2021/01/14 05:31:48;;;;;;;9.50;5.03;;;;;;;-1.90;100.00;100381.91;5028339;28;20102;-72
2021/01/14 05:34:15;;;;;;;7.10;4.80;;;;;;;-2.05;100.00;100376.34;5031140;28;20086;-72
2021/01/14 05:37:05;;;;;;;11.90;5.57;;;;;;;-2.20;100.00;100388.88;5013846;28;20117;-72
2021/01/14 05:39:42;;;;;;;12.50;5.53;;;;;;;-2.37;100.00;100399.66;5046354;28;20037;-72
2021/01/14 05:42:11;;;;;;;11.03;5.63;;;;;;;-2.47;100.00;100410.59;5034236;28;20087;-72
2021/01/14 05:44:39;;;;;;;9.10;5.10;;;;;;;-2.60;100.00;100414.56;5029253;28;20660;-72
2021/01/14 05:47:26;;;;;;;8.23;4.80;;;;;;;-2.71;100.00;100412.47;5030924;28;20102;-72
2021/01/14 05:49:56;;;;;;;7.97;4.70;;;;;;;-2.81;100.00;100421.69;5027681;28;20040;-72
2021/01/14 05:52:24;;;;;;;8.87;5.13;;;;;;;-2.89;100.00;100429.22;5044937;28;20138;-72
2021/01/14 05:55:08;;;;;;;7.73;4.53;;;;;;;-2.99;100.00;100437.53;5027929;28;20094;-72
2021/01/14 05:57:38;;;;;;;7.50;3.88;;;;;;;-3.09;100.00;100445.84;5037513;28;20109;-72
2021/01/14 06:00:09;;;;;;;7.50;4.57;;;;;;;-3.10;100.00;100458.72;5042533;28;20038;-71
2021/01/14 06:02:36;;;;;;;9.47;5.03;;;;;;;-3.13;100.00;100459.47;4998221;28;20041;-71
2021/01/14 06:05:02;;;;;;;9.10;5.03;;;;;;;-3.16;100.00;100468.00;5023691;28;20041;-71
2021/01/14 06:07:40;;;;;;;7.50;4.37;;;;;;;-3.23;100.00;100467.78;5028429;28;20040;-71
2021/01/14 06:10:07;;;;;;;7.67;4.27;;;;;;;-3.33;100.00;100479.53;5045478;28;20541;-71
2021/01/14 06:12:33;;;;;;;7.67;3.73;;;;;;;-3.43;100.00;100480.94;5043908;28;20033;-71
2021/01/14 06:15:15;;;;;;;6.87;4.13;;;;;;;-3.49;100.00;100491.06;5027116;28;20444;-71
2021/01/14 06:17:41;;;;;;;5.53;3.80;;;;;;;-3.55;100.00;100490.84;5042135;28;20048;-71
2021/01/14 06:20:08;;;;;;;6.37;3.70;;;;;;;-3.62;100.00;100490.56;5025586;28;20064;-71
2021/01/14 06:22:37;;;;;;;5.47;3.60;;;;;;;-3.71;100.00;100502.34;5025613;28;20032;-71
2021/01/14 06:25:07;;;;;;;7.90;5.07;;;;;;;-3.80;100.00;100496.88;5030158;28;20112;-71
2021/01/14 06:27:33;;;;;;;6.80;4.20;;;;;;;-3.80;100.00;100511.47;5045916;28;20430;-71
2021/01/14 06:30:06;;;;;;;6.00;4.17;;;;;;;-3.84;100.00;100517.38;5043432;28;20114;-71
2021/01/14 06:32:35;;;;;;;6.07;3.90;;;;;;;-3.85;100.00;100521.66;5024516;28;20040;-71
2021/01/14 06:35:02;;;;;;;7.87;3.70;;;;;;;-3.87;100.00;100518.13;5045218;28;20725;-71
2021/01/14 06:37:28;;;;;;;6.73;3.60;;;;;;;-3.89;100.00;100535.28;5026956;28;20445;-71
2021/01/14 06:39:59;;;;;;;7.20;4.43;;;;;;;-3.88;100.00;100530.97;5044315;28;20029;-71
2021/01/14 06:42:27;;;;;;;5.83;3.80;;;;;;;-3.90;100.00;100540.38;5045989;28;20619;-71
2021/01/14 06:45:00;;;;;;;5.80;3.43;;;;;;;-3.92;100.00;100544.63;5029169;28;20048;-71
2021/01/14 06:47:33;;;;;;;5.97;3.83;;;;;;;-3.94;100.00;100556.59;5039683;28;20036;-71
2021/01/14 06:50:18;;;;;;;6.40;4.07;;;;;;;-3.92;100.00;100560.09;5050476;28;20033;-71
2021/01/14 06:53:00;;;;;;;8.05;4.50;;;;;;;-3.90;100.00;100561.03;5040908;28;20068;-71
2021/01/14 06:55:28;;;;;;;7.70;4.30;;;;;;;-3.88;100.00;100567.13;5044751;28;20045;-71
2021/01/14 06:58:10;;;;;;;7.30;4.23;;;;;;;-3.89;100.00;100570.53;5019222;28;20052;-71
2021/01/14 07:00:39;;;;;;;7.73;4.30;;;;;;;-3.87;100.00;100576.59;5024100;28;20042;-71
2021/01/14 07:03:14;;;;;;;9.17;4.57;;;;;;;-3.85;100.00;100587.91;5025136;28;20040;-71
2021/01/14 07:05:58;;;;;;;7.37;4.13;;;;;;;-3.82;100.00;100598.31;5045405;28;20049;-71
2021/01/14 07:08:41;;;;;;;9.18;3.85;;;;;;;-3.82;100.00;100595.75;5027139;28;20051;-71
2021/01/14 07:11:11;;;;;;;7.83;4.07;;;;;;;-3.78;100.00;100602.78;5026926;28;20069;-71
2021/01/14 07:13:42;;;;;;;7.10;4.17;;;;;;;-3.74;100.00;100610.69;5044928;28;20060;-71
2021/01/14 07:16:11;;;;;;;7.77;4.70;;;;;;;-3.65;100.00;100609.25;5044576;28;20044;-71
2021/01/14 07:18:38;;;;;;;7.37;4.50;;;;;;;-3.55;100.00;100614.78;5045457;28;20049;-71
2021/01/14 07:21:15;;;;;;;8.83;4.37;;;;;;;-3.42;100.00;100622.16;5022308;28;20102;-71
2021/01/14 07:23:50;;;;;;;8.67;4.80;;;;;;;-3.27;100.00;100633.84;5041758;28;20044;-71
2021/01/14 07:26:16;;;;;;;9.17;4.77;;;;;;;-3.13;100.00;100637.75;5040531;28;20080;-71
2021/01/14 07:28:43;;;;;;;9.63;4.63;;;;;;;-3.00;100.00;100646.81;5026219;28;20037;-71
2021/01/14 07:31:19;;;;;;;8.30;4.77;;;;;;;-2.89;100.00;100645.47;5024545;28;20037;-71
2021/01/14 07:33:46;;;;;;;8.67;4.80;;;;;;;-2.84;100.00;100644.81;5027323;28;20233;-71
2021/01/14 07:36:28;;;;;;;9.73;5.60;;;;;;;-2.76;100.00;100650.22;5046061;28;20641;-71
2021/01/14 07:38:57;;;;;;;11.73;5.73;;;;;;;-2.69;100.00;100666.81;5040700;28;20037;-71
2021/01/14 07:41:23;;;;;;;10.37;5.57;;;;;;;-2.60;100.00;100664.53;5052932;28;20844;-71
2021/01/14 07:43:50;;;;;;;9.70;5.37;;;;;;;-2.50;100.00;100666.59;5042043;28;20037;-71
2021/01/14 07:46:20;;;;;;;9.70;5.17;;;;;;;-2.40;100.00;100680.69;5037698;28;20045;-71
2021/01/14 07:48:47;;;;;;;10.13;5.47;;;;;;;-2.31;100.00;100688.75;5031797;28;20044;-71
2021/01/14 07:51:14;;;;;;;8.60;5.10;;;;;;;-2.19;100.00;100690.81;5017613;28;20047;-71
2021/01/14 07:53:40;;;;;;;10.50;5.90;;;;;;;-2.05;100.00;100698.19;5028997;28;20052;-71
2021/01/14 07:56:27;;;;;;;11.23;5.93;;;;;;;-1.85;100.00;100701.41;5028180;28;20033;-71
2021/01/14 07:58:55;;;;;;;12.43;5.47;;;;;;;-1.71;100.00;100702.69;5027086;28;20037;-71
2021/01/14 08:01:22;;;;;;;8.93;5.07;;;;;;;-1.58;100.00;100719.47;5027776;28;20033;-71
2021/01/14 08:03:48;;;;;;;8.33;4.50;;;;;;;-1.48;100.00;100718.03;5031048;28;20076;-71
2021/01/14 08:06:35;;;;;;;11.73;5.90;;;;;;;-1.39;100.00;100714.81;5015155;28;20037;-71
2021/01/14 08:09:09;;;;;;;8.80;4.60;;;;;;;-1.35;100.00;100720.13;5048397;28;20041;-71
2021/01/14 08:11:36;;;;;;;12.57;6.00;;;;;;;-1.32;100.00;100722.81;5040612;28;20170;-71
2021/01/14 08:14:29;;;;;;;9.03;5.00;;;;;;;-1.28;100.00;100728.94;5019677;28;20449;-71
2021/01/14 08:16:56;;;;;;;9.00;5.23;;;;;;;-1.21;100.00;100730.88;5026916;28;20160;-71
2021/01/14 08:19:28;;;;;;;9.30;4.50;;;;;;;-1.05;100.00;100738.25;5028215;28;20033;-71
2021/01/14 08:22:05;;;;;;;6.87;3.90;;;;;;;-1.06;100.00;100739.09;5045910;28;20065;-71
2021/01/14 08:24:54;;;;;;;8.70;3.90;;;;;;;-1.03;100.00;100748.66;5047360;28;20040;-72
2021/01/14 08:27:20;;;;;;;8.40;4.33;;;;;;;-1.02;100.00;100759.06;5023672;28;20044;-72
2021/01/14 08:29:57;;;;;;;9.33;4.17;;;;;;;-0.97;100.00;100769.59;5031115;28;20044;-72
2021/01/14 08:32:33;;;;;;;7.83;4.03;;;;;;;-0.90;100.00;100771.50;5049352;28;20044;-72
2021/01/14 08:35:15;;;;;;;9.07;4.40;;;;;;;-0.86;100.00;100779.41;5029845;28;20040;-72
2021/01/14 08:38:06;;;;;;;9.30;4.43;;;;;;;-0.80;100.00;100778.69;5054282;28;20041;-72
2021/01/14 08:40:36;;;;;;;8.30;4.93;;;;;;;-0.70;100.00;100790.22;5045634;28;20479;-72
2021/01/14 08:43:09;;;;;;;6.83;3.33;;;;;;;-0.55;100.00;100795.81;5051691;28;20036;-73
2021/01/14 08:45:43;;;;;;;5.97;3.43;;;;;;;-0.37;100.00;100795.41;5034520;28;20697;-73
2021/01/14 08:48:12;;;;;;;6.37;3.27;;;;;;;-0.38;100.00;100812.69;5031777;28;20470;-73
2021/01/14 08:50:42;;;;;;;4.43;2.60;;;;;;;-0.42;100.00;100813.47;5049320;28;20044;-74
2021/01/14 08:53:17;;;;;;;7.03;3.27;;;;;;;-0.41;100.00;100811.75;5029028;28;20076;-74
2021/01/14 08:55:44;;;;;;;5.70;2.70;;;;;;;-0.43;100.00;100814.28;5056974;28;20040;-74
2021/01/14 08:58:12;;;;;;;5.23;2.80;;;;;;;-0.47;100.00;100822.84;5033499;28;20057;-74
2021/01/14 09:00:38;;;;;;;5.83;3.10;;;;;;;-0.45;100.00;100831.53;5045867;28;20075;-74
2021/01/14 09:03:05;;;;;;;3.70;2.37;;;;;;;-0.35;100.00;100830.94;5044340;28;20045;-74
2021/01/14 09:05:32;;;;;;;6.40;2.60;;;;;;;-0.26;100.00;100837.22;5033166;28;20091;-74
2021/01/14 09:08:05;;;;;;;6.53;3.80;;;;;;;-0.22;100.00;100839.06;5029777;28;20040;-74
2021/01/14 09:10:42;;;;;;;4.77;2.50;;;;;;;-0.13;100.00;100844.50;5041627;28;20040;-75
2021/01/14 09:13:09;;;;;;;5.87;2.73;;;;;;;0.07;100.00;100850.19;5042805;28;20047;-75
2021/01/14 09:15:36;;;;;;;5.57;3.10;;;;;;;0.16;100.00;100850.41;5022867;28;22619;-75
2021/01/14 09:18:03;;;;;;;9.47;4.00;;;;;;;0.24;100.00;100854.06;5038766;28;20044;-75
2021/01/14 09:20:29;;;;;;;5.57;2.80;;;;;;;0.38;100.00;100862.22;5029580;28;20101;-75
2021/01/14 09:23:17;;;;;;;7.07;3.90;;;;;;;0.44;100.00;100860.63;5028286;28;20049;-75
2021/01/14 09:25:44;;;;;;;4.80;2.90;;;;;;;0.50;100.00;100867.69;5048943;28;20041;-75
2021/01/14 09:28:12;;;;;;;6.37;3.03;;;;;;;0.56;100.00;100866.09;5045456;28;20122;-75
2021/01/14 09:30:38;;;;;;;4.53;3.17;;;;;;;0.77;100.00;100863.13;5029817;28;20032;-76
2021/01/14 09:33:05;;;;;;;5.73;3.73;;;;;;;0.82;100.00;100873.63;5046025;28;20041;-75
2021/01/14 09:35:31;;;;;;;10.57;5.10;;;;;;;0.72;100.00;100874.25;5012954;28;20410;-75
2021/01/14 09:37:57;;;;;;;8.20;4.53;;;;;;;1.18;100.00;100870.97;5029385;28;20037;-76
2021/01/14 09:40:24;;;;;;;8.30;4.80;;;;;;;2.45;100.00;100870.69;5029489;28;20522;-75
2021/01/14 09:42:50;;;;;;;18.23;5.80;;;;;;;4.22;100.00;100868.50;5045994;28;20043;-75
2021/01/14 09:45:17;;;;;;;10.17;5.43;;;;;;;5.92;100.00;100864.19;5047410;28;20037;-76
2021/01/14 09:47:51;;;;;;;6.27;4.00;;;;;;;6.75;100.00;100863.31;5028696;28;20111;-76
2021/01/14 09:50:18;;;;;;;7.75;4.55;;;;;;;7.38;100.00;100868.38;5023884;28;20053;-76
2021/01/14 09:52:45;;;;;;;6.05;4.32;;;;;;;7.95;100.00;100870.72;5030629;28;20037;-76
2021/01/14 09:55:13;;;;;;;5.70;3.55;;;;;;;8.67;98.52;100878.97;5017041;28;20044;-76
2021/01/14 09:57:45;;;;;;;5.75;3.42;;;;;;;9.66;91.69;100876.97;5025686;28;20049;-76
2021/01/14 10:00:15;;;;;;;8.85;4.85;;;;;;;10.84;83.86;100874.25;5027669;28;20041;-76
2021/01/14 10:02:43;;;;;;;4.35;3.90;;;;;;;11.67;74.28;100877.91;5028211;28;20051;-77
2021/01/14 10:05:13;;;;;;;5.85;3.80;;;;;;;11.45;69.59;100875.72;5045219;28;20052;-74
2021/01/14 10:07:54;;;;;;;5.32;4.00;;;;;;;10.04;69.39;100885.22;5011544;28;20041;-77
2021/01/14 10:10:20;;;;;;;6.80;4.22;;;;;;;8.50;69.29;100891.41;5024273;28;20111;-76
2021/01/14 10:12:54;;;;;;;6.05;3.72;;;;;;;7.24;75.96;100904.38;5044307;28;20095;-76
2021/01/14 10:15:20;;;;;;;5.88;3.90;;;;;;;6.40;77.26;100897.47;5042972;28;20064;-76
2021/01/14 10:17:47;;;;;;;5.38;4.30;;;;;;;5.65;80.56;100902.53;5027346;28;20056;-76
2021/01/14 10:20:13;;;;;;;5.75;4.32;;;;;;;5.21;83.50;100907.59;5036706;28;20086;-76
2021/01/14 10:22:46;;;;;;;8.20;5.20;;;;;;;4.16;83.12;100914.63;5037065;28;20067;-76
2021/01/14 10:25:13;;;;;;;7.07;4.67;;;;;;;3.70;88.94;100910.66;5044029;28;20060;-75
2021/01/14 10:27:39;;;;;;;8.13;5.57;;;;;;;3.08;88.76;100909.00;5037413;28;20114;-75
2021/01/14 10:30:21;;;;;;;7.07;5.47;;;;;;;2.66;91.36;100912.72;5032855;28;20041;-76
2021/01/14 10:32:48;;;;;;;7.93;4.83;;;;;;;2.58;94.89;100924.78;5043145;28;20033;-76
2021/01/14 10:35:23;;;;;;;6.97;5.03;;;;;;;2.39;95.73;100926.22;5021927;28;20571;-76
2021/01/14 10:38:12;;;;;;;9.10;5.68;;;;;;;2.25;97.65;100920.75;5011550;28;20076;-75
2021/01/14 10:40:44;;;;;;;9.27;5.60;;;;;;;2.12;97.96;100920.53;5038247;28;20048;-75
2021/01/14 10:43:34;;;;;;;7.80;5.07;;;;;;;2.05;98.28;100926.47;5040711;28;20041;-75
2021/01/14 10:46:01;;;;;;;9.47;6.70;;;;;;;2.05;98.79;100922.13;5040414;28;20045;-75
2021/01/14 10:48:38;;;;;;;7.73;5.87;;;;;;;2.32;98.42;100908.69;5047899;28;20547;-75
2021/01/14 10:51:06;;;;;;;8.63;5.03;;;;;;;2.51;97.84;100921.19;5022867;28;20045;-75
2021/01/14 10:53:37;;;;;;;7.80;5.70;;;;;;;2.50;97.85;100924.66;5037536;28;20045;-75
2021/01/14 10:56:14;;;;;;;8.57;5.83;;;;;;;2.34;97.12;100927.84;5023955;28;20044;-76
2021/01/14 10:58:40;;;;;;;6.97;5.43;;;;;;;2.20;98.27;100924.16;5024924;28;20307;-76
2021/01/14 11:01:20;;;;;;;8.43;6.07;;;;;;;2.14;98.76;100919.69;5028867;28;20060;-76
2021/01/14 11:03:47;;;;;;;9.73;6.23;;;;;;;2.12;99.70;100929.22;5022611;28;20041;-74
2021/01/14 11:06:39;;;;;;;8.60;6.40;;;;;;;1.93;99.04;100934.91;5023294;28;20044;-76
2021/01/14 11:09:10;;;;;;;8.23;7.33;;;;;;;1.78;100.00;100932.91;5011012;28;20033;-76
2021/01/14 11:11:37;;;;;;;11.20;10.00;;;;;;;1.65;100.00;100933.50;5028768;28;20052;-76
2021/01/14 11:14:03;;;;;;;9.73;8.73;;;;;;;1.55;100.00;100942.00;5023445;28;20580;-76
2021/01/14 11:16:29;;;;;;;9.87;8.93;;;;;;;1.56;100.00;100935.94;5048356;28;20044;-76
2021/01/14 11:18:58;;;;;;;11.93;8.70;;;;;;;1.55;100.00;100936.78;5029146;28;20382;-76
2021/01/14 11:21:27;;;;;;;8.90;8.10;;;;;;;1.52;100.00;100937.59;5013307;28;20037;-74
2021/01/14 11:23:54;;;;;;;10.20;9.03;;;;;;;1.52;100.00;100948.03;5024755;28;20041;-76
2021/01/14 11:26:21;;;;;;;11.90;10.70;;;;;;;1.50;100.00;100948.81;5027155;28;20048;-75
2021/01/14 11:28:48;;;;;;;10.00;8.40;;;;;;;1.38;100.00;100945.13;5026300;28;20131;-75
2021/01/14 11:31:18;;;;;;;11.60;8.30;;;;;;;1.35;100.00;100941.59;5016724;28;20510;-74